Burleigh, Texas
Current Conditions -  °F | °C
As of 10:35 AM on Sunday 21 Dec 2014 (Local Time) from K11R Reporting Station
Overcast Overcast  
Wind Chill: 53°   Ceiling: 900
Heat Index: 53°   Visibility: 10mi
Dew Point: 50°   Wind: 3mph
Humidity: 88%   Direction: 120°ESE
Pressure: 30.12"   Gusts: NA
Location:  29.9944°N, 96.2595°W
Report Text: K11R 211635Z AUTO 12003KT 10SM OVC009 12/10 A3012 RMK AO2 T01170098
Loading
Personal Weather Stations






























Interactive Weather Map New forecast layout! Learn more

10-Day Weather Forecast

Advertisements
Track Severe Weather on mobile